sensor_id;sensor_type;location;lat;lon;timestamp;temperature;humidity
72814;DHT22;60945;48.516;-2.768;2023-02-01T00:00:05;10.90;62.50
72814;DHT22;60945;48.516;-2.768;2023-02-01T00:02:31;11.00;62.40
72814;DHT22;60945;48.516;-2.768;2023-02-01T00:04:57;11.00;62.50
72814;DHT22;60945;48.516;-2.768;2023-02-01T00:07:22;11.10;62.20
72814;DHT22;60945;48.516;-2.768;2023-02-01T00:09:48;11.40;62.10
72814;DHT22;60945;48.516;-2.768;2023-02-01T00:12:14;11.40;61.40
72814;DHT22;60945;48.516;-2.768;2023-02-01T00:14:42;11.60;61.10
72814;DHT22;60945;48.516;-2.768;2023-02-01T00:17:07;11.30;62.00
72814;DHT22;60945;48.516;-2.768;2023-02-01T00:19:33;11.30;61.90
72814;DHT22;60945;48.516;-2.768;2023-02-01T00:21:59;11.40;62.00
72814;DHT22;60945;48.516;-2.768;2023-02-01T00:24:25;11.40;61.50
72814;DHT22;60945;48.516;-2.768;2023-02-01T00:26:51;11.50;60.60
72814;DHT22;60945;48.516;-2.768;2023-02-01T00:29:18;11.50;60.60
72814;DHT22;60945;48.516;-2.768;2023-02-01T00:31:44;11.50;61.60
72814;DHT22;60945;48.516;-2.768;2023-02-01T00:34:13;11.60;62.60
72814;DHT22;60945;48.516;-2.768;2023-02-01T00:36:39;11.30;62.00
72814;DHT22;60945;48.516;-2.768;2023-02-01T00:39:05;11.10;62.50
72814;DHT22;60945;48.516;-2.768;2023-02-01T00:41:30;10.90;63.40
72814;DHT22;60945;48.516;-2.768;2023-02-01T00:43:56;10.70;63.30
72814;DHT22;60945;48.516;-2.768;2023-02-01T00:46:22;10.80;63.00
72814;DHT22;60945;48.516;-2.768;2023-02-01T00:48:48;11.00;62.20
72814;DHT22;60945;48.516;-2.768;2023-02-01T00:51:16;11.10;62.80
72814;DHT22;60945;48.516;-2.768;2023-02-01T00:53:42;11.10;62.30
72814;DHT22;60945;48.516;-2.768;2023-02-01T00:56:08;11.10;62.40
72814;DHT22;60945;48.516;-2.768;2023-02-01T00:58:34;11.20;62.40
72814;DHT22;60945;48.516;-2.768;2023-02-01T01:01:10;11.30;62.80
72814;DHT22;60945;48.516;-2.768;2023-02-01T01:03:40;11.40;62.10
72814;DHT22;60945;48.516;-2.768;2023-02-01T01:06:13;11.20;61.10
72814;DHT22;60945;48.516;-2.768;2023-02-01T01:08:40;11.20;61.10
72814;DHT22;60945;48.516;-2.768;2023-02-01T01:11:07;11.00;62.00
72814;DHT22;60945;48.516;-2.768;2023-02-01T01:13:34;10.90;61.90
72814;DHT22;60945;48.516;-2.768;2023-02-01T01:16:01;10.80;62.60
72814;DHT22;60945;48.516;-2.768;2023-02-01T01:18:28;11.00;63.40
72814;DHT22;60945;48.516;-2.768;2023-02-01T01:20:54;10.80;62.30
72814;DHT22;60945;48.516;-2.768;2023-02-01T01:23:20;10.90;62.30
72814;DHT22;60945;48.516;-2.768;2023-02-01T01:25:45;11.00;61.20
72814;DHT22;60945;48.516;-2.768;2023-02-01T01:28:11;11.10;62.60
72814;DHT22;60945;48.516;-2.768;2023-02-01T01:30:37;11.20;63.00
72814;DHT22;60945;48.516;-2.768;2023-02-01T01:33:05;11.20;61.00
72814;DHT22;60945;48.516;-2.768;2023-02-01T01:35:32;11.30;62.20
72814;DHT22;60945;48.516;-2.768;2023-02-01T01:37:58;11.30;60.80
72814;DHT22;60945;48.516;-2.768;2023-02-01T01:40:28;11.20;60.80
72814;DHT22;60945;48.516;-2.768;2023-02-01T01:42:54;11.10;61.90
72814;DHT22;60945;48.516;-2.768;2023-02-01T01:47:48;10.70;62.40
72814;DHT22;60945;48.516;-2.768;2023-02-01T01:50:19;10.90;62.20
72814;DHT22;60945;48.516;-2.768;2023-02-01T01:52:49;11.00;61.70
72814;DHT22;60945;48.516;-2.768;2023-02-01T01:55:17;11.10;62.30
72814;DHT22;60945;48.516;-2.768;2023-02-01T01:57:56;11.10;62.00
72814;DHT22;60945;48.516;-2.768;2023-02-01T02:00:23;10.90;62.20
72814;DHT22;60945;48.516;-2.768;2023-02-01T02:02:54;10.90;62.20
72814;DHT22;60945;48.516;-2.768;2023-02-01T02:05:22;11.00;61.50
72814;DHT22;60945;48.516;-2.768;2023-02-01T02:07:49;11.20;60.70
72814;DHT22;60945;48.516;-2.768;2023-02-01T02:10:16;11.30;61.50
72814;DHT22;60945;48.516;-2.768;2023-02-01T02:12:44;11.40;60.70
72814;DHT22;60945;48.516;-2.768;2023-02-01T02:15:12;11.50;61.10
72814;DHT22;60945;48.516;-2.768;2023-02-01T02:17:54;11.50;61.10
72814;DHT22;60945;48.516;-2.768;2023-02-01T02:34:47;11.40;62.50
72814;DHT22;60945;48.516;-2.768;2023-02-01T02:37:38;11.40;61.10
72814;DHT22;60945;48.516;-2.768;2023-02-01T02:43:21;11.40;60.10
72814;DHT22;60945;48.516;-2.768;2023-02-01T02:46:14;11.40;61.30
72814;DHT22;60945;48.516;-2.768;2023-02-01T02:51:42;11.50;60.10
72814;DHT22;60945;48.516;-2.768;2023-02-01T02:54:32;11.40;60.50
72814;DHT22;60945;48.516;-2.768;2023-02-01T02:57:21;11.50;60.60
72814;DHT22;60945;48.516;-2.768;2023-02-01T03:00:10;11.30;60.10
72814;DHT22;60945;48.516;-2.768;2023-02-01T03:02:55;11.20;60.50
72814;DHT22;60945;48.516;-2.768;2023-02-01T03:05:45;11.40;60.60
72814;DHT22;60945;48.516;-2.768;2023-02-01T03:08:14;11.50;59.50
72814;DHT22;60945;48.516;-2.768;2023-02-01T03:11:03;11.60;60.60
72814;DHT22;60945;48.516;-2.768;2023-02-01T03:13:52;11.40;61.70
72814;DHT22;60945;48.516;-2.768;2023-02-01T03:16:24;11.40;62.60
72814;DHT22;60945;48.516;-2.768;2023-02-01T03:19:00;11.50;60.60
72814;DHT22;60945;48.516;-2.768;2023-02-01T03:24:44;11.50;60.60
72814;DHT22;60945;48.516;-2.768;2023-02-01T03:32:36;11.10;61.20
72814;DHT22;60945;48.516;-2.768;2023-02-01T03:35:26;11.20;62.10
72814;DHT22;60945;48.516;-2.768;2023-02-01T03:37:55;11.10;61.60
72814;DHT22;60945;48.516;-2.768;2023-02-01T03:40:22;10.90;61.80
72814;DHT22;60945;48.516;-2.768;2023-02-01T03:42:54;11.00;62.30
72814;DHT22;60945;48.516;-2.768;2023-02-01T03:45:35;11.30;61.50
72814;DHT22;60945;48.516;-2.768;2023-02-01T03:48:02;11.30;61.80
72814;DHT22;60945;48.516;-2.768;2023-02-01T03:50:30;11.20;61.60
72814;DHT22;60945;48.516;-2.768;2023-02-01T03:53:09;11.30;61.80
72814;DHT22;60945;48.516;-2.768;2023-02-01T03:55:36;10.90;61.70
72814;DHT22;60945;48.516;-2.768;2023-02-01T04:00:30;11.30;61.90
72814;DHT22;60945;48.516;-2.768;2023-02-01T04:02:56;11.30;60.80
72814;DHT22;60945;48.516;-2.768;2023-02-01T04:05:22;11.40;60.70
72814;DHT22;60945;48.516;-2.768;2023-02-01T04:07:48;11.20;60.80
72814;DHT22;60945;48.516;-2.768;2023-02-01T04:10:14;11.20;60.80
72814;DHT22;60945;48.516;-2.768;2023-02-01T04:12:40;11.30;60.70
72814;DHT22;60945;48.516;-2.768;2023-02-01T04:15:07;11.40;61.20
72814;DHT22;60945;48.516;-2.768;2023-02-01T04:17:32;11.20;60.80
72814;DHT22;60945;48.516;-2.768;2023-02-01T04:19:58;11.20;60.90
72814;DHT22;60945;48.516;-2.768;2023-02-01T04:22:24;11.10;61.10
72814;DHT22;60945;48.516;-2.768;2023-02-01T04:24:49;11.10;60.50
72814;DHT22;60945;48.516;-2.768;2023-02-01T04:27:15;11.20;60.70
72814;DHT22;60945;48.516;-2.768;2023-02-01T04:29:40;11.10;60.80
72814;DHT22;60945;48.516;-2.768;2023-02-01T04:32:06;11.20;60.70
72814;DHT22;60945;48.516;-2.768;2023-02-01T04:34:32;11.30;60.80
72814;DHT22;60945;48.516;-2.768;2023-02-01T04:36:58;11.30;59.60
72814;DHT22;60945;48.516;-2.768;2023-02-01T04:39:23;11.40;59.80
72814;DHT22;60945;48.516;-2.768;2023-02-01T04:41:49;11.40;60.10
72814;DHT22;60945;48.516;-2.768;2023-02-01T04:44:18;11.40;60.50
72814;DHT22;60945;48.516;-2.768;2023-02-01T04:46:46;11.10;60.30
72814;DHT22;60945;48.516;-2.768;2023-02-01T04:49:13;11.20;60.60
72814;DHT22;60945;48.516;-2.768;2023-02-01T04:51:39;11.20;60.20
72814;DHT22;60945;48.516;-2.768;2023-02-01T04:54:05;11.30;60.50
72814;DHT22;60945;48.516;-2.768;2023-02-01T04:56:34;11.20;60.60
72814;DHT22;60945;48.516;-2.768;2023-02-01T04:59:00;11.20;60.90
72814;DHT22;60945;48.516;-2.768;2023-02-01T05:01:28;11.40;60.10
72814;DHT22;60945;48.516;-2.768;2023-02-01T05:03:54;11.30;60.80
72814;DHT22;60945;48.516;-2.768;2023-02-01T05:06:20;11.40;61.20
72814;DHT22;60945;48.516;-2.768;2023-02-01T05:08:45;11.30;59.80
72814;DHT22;60945;48.516;-2.768;2023-02-01T05:11:11;11.50;59.40
72814;DHT22;60945;48.516;-2.768;2023-02-01T05:13:57;11.50;60.10
72814;DHT22;60945;48.516;-2.768;2023-02-01T05:16:23;11.50;59.70
72814;DHT22;60945;48.516;-2.768;2023-02-01T05:18:48;11.50;59.80
72814;DHT22;60945;48.516;-2.768;2023-02-01T05:21:14;11.50;60.20
72814;DHT22;60945;48.516;-2.768;2023-02-01T05:23:40;11.50;59.50
72814;DHT22;60945;48.516;-2.768;2023-02-01T05:26:24;11.30;61.70
72814;DHT22;60945;48.516;-2.768;2023-02-01T05:28:50;11.50;61.80
72814;DHT22;60945;48.516;-2.768;2023-02-01T05:31:16;11.50;59.90
72814;DHT22;60945;48.516;-2.768;2023-02-01T05:33:42;11.40;60.20
72814;DHT22;60945;48.516;-2.768;2023-02-01T05:36:08;11.30;60.70
72814;DHT22;60945;48.516;-2.768;2023-02-01T05:38:33;11.20;60.60
72814;DHT22;60945;48.516;-2.768;2023-02-01T05:41:01;11.30;62.00
72814;DHT22;60945;48.516;-2.768;2023-02-01T05:43:29;11.40;62.40
72814;DHT22;60945;48.516;-2.768;2023-02-01T05:45:55;11.40;62.20
72814;DHT22;60945;48.516;-2.768;2023-02-01T05:48:20;11.20;61.00
72814;DHT22;60945;48.516;-2.768;2023-02-01T05:50:46;11.10;60.80
72814;DHT22;60945;48.516;-2.768;2023-02-01T05:53:12;11.20;61.10
72814;DHT22;60945;48.516;-2.768;2023-02-01T05:55:38;11.40;60.70
72814;DHT22;60945;48.516;-2.768;2023-02-01T05:58:04;11.40;61.40
72814;DHT22;60945;48.516;-2.768;2023-02-01T06:00:30;11.40;61.00
72814;DHT22;60945;48.516;-2.768;2023-02-01T06:02:55;11.30;60.80
72814;DHT22;60945;48.516;-2.768;2023-02-01T06:05:21;11.30;60.70
72814;DHT22;60945;48.516;-2.768;2023-02-01T06:07:47;11.40;60.10
72814;DHT22;60945;48.516;-2.768;2023-02-01T06:10:15;11.50;60.20
72814;DHT22;60945;48.516;-2.768;2023-02-01T06:12:41;11.30;60.80
72814;DHT22;60945;48.516;-2.768;2023-02-01T06:15:07;11.20;61.30
72814;DHT22;60945;48.516;-2.768;2023-02-01T06:17:33;11.30;60.60
72814;DHT22;60945;48.516;-2.768;2023-02-01T06:19:59;11.20;60.80
72814;DHT22;60945;48.516;-2.768;2023-02-01T06:22:25;11.20;61.20
72814;DHT22;60945;48.516;-2.768;2023-02-01T06:24:50;11.10;61.30
72814;DHT22;60945;48.516;-2.768;2023-02-01T06:27:16;11.20;60.60
72814;DHT22;60945;48.516;-2.768;2023-02-01T06:29:41;11.20;60.40
72814;DHT22;60945;48.516;-2.768;2023-02-01T06:32:07;11.20;60.40
72814;DHT22;60945;48.516;-2.768;2023-02-01T06:34:33;11.30;61.00
72814;DHT22;60945;48.516;-2.768;2023-02-01T06:37:01;11.40;62.10
72814;DHT22;60945;48.516;-2.768;2023-02-01T06:39:27;11.40;60.60
72814;DHT22;60945;48.516;-2.768;2023-02-01T06:41:53;11.40;60.20
72814;DHT22;60945;48.516;-2.768;2023-02-01T06:44:19;11.10;61.00
72814;DHT22;60945;48.516;-2.768;2023-02-01T06:46:46;11.00;61.70
72814;DHT22;60945;48.516;-2.768;2023-02-01T06:49:11;11.10;60.90
72814;DHT22;60945;48.516;-2.768;2023-02-01T06:51:37;11.20;61.80
72814;DHT22;60945;48.516;-2.768;2023-02-01T06:54:02;11.20;61.40
72814;DHT22;60945;48.516;-2.768;2023-02-01T06:56:28;11.30;60.90
72814;DHT22;60945;48.516;-2.768;2023-02-01T06:58:54;11.40;60.10
72814;DHT22;60945;48.516;-2.768;2023-02-01T07:01:19;11.30;60.40
72814;DHT22;60945;48.516;-2.768;2023-02-01T07:03:49;11.10;60.60
72814;DHT22;60945;48.516;-2.768;2023-02-01T07:06:16;11.30;61.40
72814;DHT22;60945;48.516;-2.768;2023-02-01T07:08:42;11.30;60.70
72814;DHT22;60945;48.516;-2.768;2023-02-01T07:11:13;11.10;61.20
72814;DHT22;60945;48.516;-2.768;2023-02-01T07:13:39;11.00;61.00
72814;DHT22;60945;48.516;-2.768;2023-02-01T07:16:08;11.00;61.20
72814;DHT22;60945;48.516;-2.768;2023-02-01T07:18:34;11.10;61.00
72814;DHT22;60945;48.516;-2.768;2023-02-01T07:21:00;10.90;61.30
72814;DHT22;60945;48.516;-2.768;2023-02-01T07:23:26;10.90;62.70
72814;DHT22;60945;48.516;-2.768;2023-02-01T07:25:56;11.00;61.40
72814;DHT22;60945;48.516;-2.768;2023-02-01T07:28:22;11.10;60.90
72814;DHT22;60945;48.516;-2.768;2023-02-01T07:30:48;11.10;61.00
72814;DHT22;60945;48.516;-2.768;2023-02-01T07:33:25;11.00;61.20
72814;DHT22;60945;48.516;-2.768;2023-02-01T07:35:51;11.10;61.90
72814;DHT22;60945;48.516;-2.768;2023-02-01T07:38:18;11.10;61.20
72814;DHT22;60945;48.516;-2.768;2023-02-01T07:40:44;11.10;61.60
72814;DHT22;60945;48.516;-2.768;2023-02-01T07:43:10;11.10;61.30
72814;DHT22;60945;48.516;-2.768;2023-02-01T07:45:36;11.10;61.70
72814;DHT22;60945;48.516;-2.768;2023-02-01T07:48:02;11.00;61.80
72814;DHT22;60945;48.516;-2.768;2023-02-01T07:50:28;11.00;62.00
72814;DHT22;60945;48.516;-2.768;2023-02-01T07:52:54;11.00;62.70
72814;DHT22;60945;48.516;-2.768;2023-02-01T07:55:20;10.90;61.90
72814;DHT22;60945;48.516;-2.768;2023-02-01T07:57:46;10.80;62.50
72814;DHT22;60945;48.516;-2.768;2023-02-01T08:00:13;10.40;63.70
72814;DHT22;60945;48.516;-2.768;2023-02-01T08:02:58;10.40;64.00
72814;DHT22;60945;48.516;-2.768;2023-02-01T08:05:24;10.30;64.00
72814;DHT22;60945;48.516;-2.768;2023-02-01T08:07:50;10.50;63.90
72814;DHT22;60945;48.516;-2.768;2023-02-01T08:10:19;10.70;63.20
72814;DHT22;60945;48.516;-2.768;2023-02-01T08:12:45;10.80;62.70
72814;DHT22;60945;48.516;-2.768;2023-02-01T08:15:17;10.90;62.40
72814;DHT22;60945;48.516;-2.768;2023-02-01T08:17:51;11.10;62.30
72814;DHT22;60945;48.516;-2.768;2023-02-01T08:20:18;11.10;62.10
72814;DHT22;60945;48.516;-2.768;2023-02-01T08:22:44;10.90;62.00
72814;DHT22;60945;48.516;-2.768;2023-02-01T08:25:10;11.00;63.30
72814;DHT22;60945;48.516;-2.768;2023-02-01T08:27:36;11.10;62.20
72814;DHT22;60945;48.516;-2.768;2023-02-01T08:30:04;11.30;61.50
72814;DHT22;60945;48.516;-2.768;2023-02-01T08:32:30;11.30;61.50
72814;DHT22;60945;48.516;-2.768;2023-02-01T08:34:56;11.20;61.30
72814;DHT22;60945;48.516;-2.768;2023-02-01T08:37:22;11.20;60.90
72814;DHT22;60945;48.516;-2.768;2023-02-01T08:39:48;11.20;61.60
72814;DHT22;60945;48.516;-2.768;2023-02-01T08:42:16;11.20;61.80
72814;DHT22;60945;48.516;-2.768;2023-02-01T08:45:00;11.20;61.30
72814;DHT22;60945;48.516;-2.768;2023-02-01T08:47:26;11.30;62.00
72814;DHT22;60945;48.516;-2.768;2023-02-01T08:49:52;11.40;60.50
72814;DHT22;60945;48.516;-2.768;2023-02-01T08:52:18;11.30;61.30
72814;DHT22;60945;48.516;-2.768;2023-02-01T08:54:44;11.30;61.20
72814;DHT22;60945;48.516;-2.768;2023-02-01T08:57:10;11.50;61.10
72814;DHT22;60945;48.516;-2.768;2023-02-01T08:59:36;11.40;60.60
72814;DHT22;60945;48.516;-2.768;2023-02-01T09:02:02;11.20;62.60
72814;DHT22;60945;48.516;-2.768;2023-02-01T09:04:28;11.40;62.70
72814;DHT22;60945;48.516;-2.768;2023-02-01T09:06:53;11.60;60.20
72814;DHT22;60945;48.516;-2.768;2023-02-01T09:09:22;11.70;59.80
72814;DHT22;60945;48.516;-2.768;2023-02-01T09:11:47;12.00;59.80
72814;DHT22;60945;48.516;-2.768;2023-02-01T09:14:14;12.10;58.90
72814;DHT22;60945;48.516;-2.768;2023-02-01T09:16:41;12.00;59.80
72814;DHT22;60945;48.516;-2.768;2023-02-01T09:19:07;11.80;61.40
72814;DHT22;60945;48.516;-2.768;2023-02-01T09:21:33;12.00;59.60
72814;DHT22;60945;48.516;-2.768;2023-02-01T09:23:58;12.00;60.30
72814;DHT22;60945;48.516;-2.768;2023-02-01T09:26:24;12.00;59.60
72814;DHT22;60945;48.516;-2.768;2023-02-01T09:28:52;11.90;60.80
72814;DHT22;60945;48.516;-2.768;2023-02-01T09:31:19;12.00;60.10
72814;DHT22;60945;48.516;-2.768;2023-02-01T09:33:44;12.10;60.20
72814;DHT22;60945;48.516;-2.768;2023-02-01T09:36:10;12.20;59.20
72814;DHT22;60945;48.516;-2.768;2023-02-01T09:38:36;12.30;59.10
72814;DHT22;60945;48.516;-2.768;2023-02-01T09:46:32;12.70;57.40
72814;DHT22;60945;48.516;-2.768;2023-02-01T09:49:04;12.50;58.00
72814;DHT22;60945;48.516;-2.768;2023-02-01T09:51:36;12.50;58.30
72814;DHT22;60945;48.516;-2.768;2023-02-01T09:54:17;12.40;58.20
72814;DHT22;60945;48.516;-2.768;2023-02-01T10:01:54;13.30;56.90
72814;DHT22;60945;48.516;-2.768;2023-02-01T10:04:20;13.40;56.30
72814;DHT22;60945;48.516;-2.768;2023-02-01T10:09:57;13.40;56.50
72814;DHT22;60945;48.516;-2.768;2023-02-01T10:15:47;13.50;57.80
72814;DHT22;60945;48.516;-2.768;2023-02-01T10:27:32;13.60;56.10
72814;DHT22;60945;48.516;-2.768;2023-02-01T10:29:54;13.40;56.50
72814;DHT22;60945;48.516;-2.768;2023-02-01T10:32:29;13.40;57.80
72814;DHT22;60945;48.516;-2.768;2023-02-01T10:34:58;13.60;56.20
72814;DHT22;60945;48.516;-2.768;2023-02-01T10:39:53;13.40;56.70
72814;DHT22;60945;48.516;-2.768;2023-02-01T10:42:21;13.00;56.90
72814;DHT22;60945;48.516;-2.768;2023-02-01T10:44:49;13.10;57.20
72814;DHT22;60945;48.516;-2.768;2023-02-01T10:47:15;13.70;56.40
72814;DHT22;60945;48.516;-2.768;2023-02-01T10:52:38;14.10;54.70
72814;DHT22;60945;48.516;-2.768;2023-02-01T10:56:07;14.40;54.20
72814;DHT22;60945;48.516;-2.768;2023-02-01T10:58:27;14.20;54.20
72814;DHT22;60945;48.516;-2.768;2023-02-01T11:08:47;14.90;52.80
72814;DHT22;60945;48.516;-2.768;2023-02-01T11:11:14;14.10;54.00
72814;DHT22;60945;48.516;-2.768;2023-02-01T11:13:40;13.60;55.50
72814;DHT22;60945;48.516;-2.768;2023-02-01T11:16:06;13.40;55.90
72814;DHT22;60945;48.516;-2.768;2023-02-01T11:18:37;13.50;56.40
72814;DHT22;60945;48.516;-2.768;2023-02-01T11:21:05;13.50;56.20
72814;DHT22;60945;48.516;-2.768;2023-02-01T11:23:32;13.30;56.80
72814;DHT22;60945;48.516;-2.768;2023-02-01T11:26:33;13.10;56.80
72814;DHT22;60945;48.516;-2.768;2023-02-01T11:29:05;13.70;55.80
72814;DHT22;60945;48.516;-2.768;2023-02-01T11:31:35;13.70;55.10
72814;DHT22;60945;48.516;-2.768;2023-02-01T11:34:34;13.80;55.20
72814;DHT22;60945;48.516;-2.768;2023-02-01T11:37:02;14.00;54.70
72814;DHT22;60945;48.516;-2.768;2023-02-01T11:39:33;14.20;54.10
72814;DHT22;60945;48.516;-2.768;2023-02-01T11:42:13;13.90;54.70
72814;DHT22;60945;48.516;-2.768;2023-02-01T11:44:44;13.90;54.70
72814;DHT22;60945;48.516;-2.768;2023-02-01T11:47:26;14.20;54.30
72814;DHT22;60945;48.516;-2.768;2023-02-01T11:49:58;15.00;53.00
72814;DHT22;60945;48.516;-2.768;2023-02-01T11:55:37;15.80;50.20
72814;DHT22;60945;48.516;-2.768;2023-02-01T12:00:59;15.80;50.80
72814;DHT22;60945;48.516;-2.768;2023-02-01T12:17:18;16.30;48.80
72814;DHT22;60945;48.516;-2.768;2023-02-01T12:23:18;16.30;49.00
72814;DHT22;60945;48.516;-2.768;2023-02-01T12:26:35;16.50;48.10
72814;DHT22;60945;48.516;-2.768;2023-02-01T12:32:01;16.30;47.10
72814;DHT22;60945;48.516;-2.768;2023-02-01T12:37:40;16.10;47.30
72814;DHT22;60945;48.516;-2.768;2023-02-01T12:46:20;15.90;48.50
72814;DHT22;60945;48.516;-2.768;2023-02-01T12:51:40;15.40;49.60
72814;DHT22;60945;48.516;-2.768;2023-02-01T12:54:21;15.30;49.10
72814;DHT22;60945;48.516;-2.768;2023-02-01T12:56:55;15.00;49.20
72814;DHT22;60945;48.516;-2.768;2023-02-01T12:59:30;14.50;50.20
72814;DHT22;60945;48.516;-2.768;2023-02-01T13:02:14;14.40;49.70
72814;DHT22;60945;48.516;-2.768;2023-02-01T13:04:58;14.50;50.50
72814;DHT22;60945;48.516;-2.768;2023-02-01T13:12:59;14.50;51.60
72814;DHT22;60945;48.516;-2.768;2023-02-01T13:15:44;14.60;51.00
72814;DHT22;60945;48.516;-2.768;2023-02-01T13:18:18;14.50;51.20
72814;DHT22;60945;48.516;-2.768;2023-02-01T13:20:58;14.70;50.70
72814;DHT22;60945;48.516;-2.768;2023-02-01T13:23:31;14.90;49.80
72814;DHT22;60945;48.516;-2.768;2023-02-01T13:25:59;15.10;49.30
72814;DHT22;60945;48.516;-2.768;2023-02-01T13:33:34;15.30;47.10
72814;DHT22;60945;48.516;-2.768;2023-02-01T13:41:27;14.90;48.10
72814;DHT22;60945;48.516;-2.768;2023-02-01T13:44:04;14.80;48.20
72814;DHT22;60945;48.516;-2.768;2023-02-01T13:46:40;14.90;47.40
72814;DHT22;60945;48.516;-2.768;2023-02-01T13:49:13;15.00;47.20
72814;DHT22;60945;48.516;-2.768;2023-02-01T13:51:45;15.10;47.60
72814;DHT22;60945;48.516;-2.768;2023-02-01T13:54:33;14.60;49.30
72814;DHT22;60945;48.516;-2.768;2023-02-01T13:57:00;14.70;50.10
72814;DHT22;60945;48.516;-2.768;2023-02-01T14:10:55;13.90;50.20
72814;DHT22;60945;48.516;-2.768;2023-02-01T14:13:41;14.30;49.50
72814;DHT22;60945;48.516;-2.768;2023-02-01T14:16:11;14.70;49.10
72814;DHT22;60945;48.516;-2.768;2023-02-01T14:21:25;14.80;49.30
72814;DHT22;60945;48.516;-2.768;2023-02-01T14:26:50;14.20;51.50
72814;DHT22;60945;48.516;-2.768;2023-02-01T14:29:31;14.30;50.70
72814;DHT22;60945;48.516;-2.768;2023-02-01T14:32:26;14.10;50.50
72814;DHT22;60945;48.516;-2.768;2023-02-01T14:34:59;14.10;51.00
72814;DHT22;60945;48.516;-2.768;2023-02-01T14:37:31;14.40;51.10
72814;DHT22;60945;48.516;-2.768;2023-02-01T14:39:59;14.60;49.90
72814;DHT22;60945;48.516;-2.768;2023-02-01T14:42:44;14.50;50.60
72814;DHT22;60945;48.516;-2.768;2023-02-01T14:58:41;14.10;53.40
72814;DHT22;60945;48.516;-2.768;2023-02-01T15:01:23;13.80;54.20
72814;DHT22;60945;48.516;-2.768;2023-02-01T15:09:20;13.80;53.30
72814;DHT22;60945;48.516;-2.768;2023-02-01T15:14:44;13.50;54.40
72814;DHT22;60945;48.516;-2.768;2023-02-01T15:22:52;13.30;55.30
72814;DHT22;60945;48.516;-2.768;2023-02-01T15:25:21;13.00;56.10
72814;DHT22;60945;48.516;-2.768;2023-02-01T15:27:47;13.20;56.50
72814;DHT22;60945;48.516;-2.768;2023-02-01T15:30:18;13.10;56.40
72814;DHT22;60945;48.516;-2.768;2023-02-01T15:32:44;13.10;56.60
72814;DHT22;60945;48.516;-2.768;2023-02-01T15:35:52;13.10;56.20
72814;DHT22;60945;48.516;-2.768;2023-02-01T15:46:12;13.50;55.60
72814;DHT22;60945;48.516;-2.768;2023-02-01T15:48:44;13.40;55.90
72814;DHT22;60945;48.516;-2.768;2023-02-01T15:51:18;13.50;55.90
72814;DHT22;60945;48.516;-2.768;2023-02-01T15:54:14;13.40;56.70
72814;DHT22;60945;48.516;-2.768;2023-02-01T15:56:37;13.10;57.20
72814;DHT22;60945;48.516;-2.768;2023-02-01T15:59:08;13.20;56.50
72814;DHT22;60945;48.516;-2.768;2023-02-01T16:01:38;13.30;57.10
72814;DHT22;60945;48.516;-2.768;2023-02-01T16:04:17;13.20;57.50
72814;DHT22;60945;48.516;-2.768;2023-02-01T16:06:52;13.30;57.30
72814;DHT22;60945;48.516;-2.768;2023-02-01T16:09:20;13.30;57.00
72814;DHT22;60945;48.516;-2.768;2023-02-01T16:12:01;13.20;56.70
72814;DHT22;60945;48.516;-2.768;2023-02-01T16:14:27;13.30;56.50
72814;DHT22;60945;48.516;-2.768;2023-02-01T16:16:54;13.20;58.10
72814;DHT22;60945;48.516;-2.768;2023-02-01T16:19:20;13.20;57.40
72814;DHT22;60945;48.516;-2.768;2023-02-01T16:21:47;13.20;57.20
72814;DHT22;60945;48.516;-2.768;2023-02-01T16:24:13;13.10;57.40
72814;DHT22;60945;48.516;-2.768;2023-02-01T16:26:38;13.10;57.90
72814;DHT22;60945;48.516;-2.768;2023-02-01T16:29:05;13.10;58.00
72814;DHT22;60945;48.516;-2.768;2023-02-01T16:31:38;13.20;57.80
72814;DHT22;60945;48.516;-2.768;2023-02-01T16:34:05;13.00;58.20
72814;DHT22;60945;48.516;-2.768;2023-02-01T16:36:32;13.20;57.30
72814;DHT22;60945;48.516;-2.768;2023-02-01T16:38:58;13.20;57.50
72814;DHT22;60945;48.516;-2.768;2023-02-01T16:41:24;13.30;58.80
72814;DHT22;60945;48.516;-2.768;2023-02-01T16:43:53;13.10;58.80
72814;DHT22;60945;48.516;-2.768;2023-02-01T16:46:22;13.10;59.10
72814;DHT22;60945;48.516;-2.768;2023-02-01T16:48:56;12.90;57.80
72814;DHT22;60945;48.516;-2.768;2023-02-01T16:51:23;12.90;58.70
72814;DHT22;60945;48.516;-2.768;2023-02-01T16:53:50;13.00;58.20
72814;DHT22;60945;48.516;-2.768;2023-02-01T16:56:18;12.90;58.30
72814;DHT22;60945;48.516;-2.768;2023-02-01T16:58:45;12.90;59.50
72814;DHT22;60945;48.516;-2.768;2023-02-01T17:01:13;12.90;58.90
72814;DHT22;60945;48.516;-2.768;2023-02-01T17:03:40;12.90;58.50
72814;DHT22;60945;48.516;-2.768;2023-02-01T17:06:09;12.90;58.70
72814;DHT22;60945;48.516;-2.768;2023-02-01T17:08:37;12.80;59.70
72814;DHT22;60945;48.516;-2.768;2023-02-01T17:11:05;12.80;58.90
72814;DHT22;60945;48.516;-2.768;2023-02-01T17:13:32;12.70;58.50
72814;DHT22;60945;48.516;-2.768;2023-02-01T17:16:01;12.60;59.10
72814;DHT22;60945;48.516;-2.768;2023-02-01T17:18:31;12.40;59.40
72814;DHT22;60945;48.516;-2.768;2023-02-01T17:20:58;12.60;58.70
72814;DHT22;60945;48.516;-2.768;2023-02-01T17:23:25;12.50;58.70
72814;DHT22;60945;48.516;-2.768;2023-02-01T17:25:52;12.60;58.20
72814;DHT22;60945;48.516;-2.768;2023-02-01T17:28:20;12.70;59.10
72814;DHT22;60945;48.516;-2.768;2023-02-01T17:30:46;12.70;58.80
72814;DHT22;60945;48.516;-2.768;2023-02-01T17:33:25;12.60;59.60
72814;DHT22;60945;48.516;-2.768;2023-02-01T17:35:53;12.40;59.00
72814;DHT22;60945;48.516;-2.768;2023-02-01T17:38:19;12.50;58.10
72814;DHT22;60945;48.516;-2.768;2023-02-01T17:40:45;12.40;58.50
72814;DHT22;60945;48.516;-2.768;2023-02-01T17:43:19;12.20;58.70
72814;DHT22;60945;48.516;-2.768;2023-02-01T17:45:49;12.40;58.30
72814;DHT22;60945;48.516;-2.768;2023-02-01T17:48:20;12.40;58.30
72814;DHT22;60945;48.516;-2.768;2023-02-01T17:50:48;12.30;58.60
72814;DHT22;60945;48.516;-2.768;2023-02-01T17:53:17;12.30;58.90
72814;DHT22;60945;48.516;-2.768;2023-02-01T17:55:45;12.20;58.70
72814;DHT22;60945;48.516;-2.768;2023-02-01T17:58:12;12.20;57.80
72814;DHT22;60945;48.516;-2.768;2023-02-01T18:00:39;12.10;58.60
72814;DHT22;60945;48.516;-2.768;2023-02-01T18:03:05;12.20;58.80
72814;DHT22;60945;48.516;-2.768;2023-02-01T18:05:38;12.20;59.00
72814;DHT22;60945;48.516;-2.768;2023-02-01T18:08:06;12.30;58.20
72814;DHT22;60945;48.516;-2.768;2023-02-01T18:10:32;12.30;57.90
72814;DHT22;60945;48.516;-2.768;2023-02-01T18:12:58;12.30;58.80
72814;DHT22;60945;48.516;-2.768;2023-02-01T18:15:24;12.30;58.90
72814;DHT22;60945;48.516;-2.768;2023-02-01T18:17:52;12.30;58.10
72814;DHT22;60945;48.516;-2.768;2023-02-01T18:20:23;12.30;57.80
72814;DHT22;60945;48.516;-2.768;2023-02-01T18:22:49;12.20;58.70
72814;DHT22;60945;48.516;-2.768;2023-02-01T18:25:27;12.10;59.60
72814;DHT22;60945;48.516;-2.768;2023-02-01T18:27:55;12.10;58.20
72814;DHT22;60945;48.516;-2.768;2023-02-01T18:30:23;12.20;59.30